sensor_id;sensor_type;location;lat;lon;timestamp;temperature;humidity
33865;DHT22;20159;51.072;13.526;2023-04-03T00:00:29;5.00;82.10
33865;DHT22;20159;51.072;13.526;2023-04-03T00:02:55;4.90;81.60
33865;DHT22;20159;51.072;13.526;2023-04-03T00:05:20;4.90;81.60
33865;DHT22;20159;51.072;13.526;2023-04-03T00:07:46;4.90;81.70
33865;DHT22;20159;51.072;13.526;2023-04-03T00:10:12;4.90;81.60
33865;DHT22;20159;51.072;13.526;2023-04-03T00:12:37;4.80;81.20
33865;DHT22;20159;51.072;13.526;2023-04-03T00:15:03;4.80;81.20
33865;DHT22;20159;51.072;13.526;2023-04-03T00:17:29;4.80;81.30
33865;DHT22;20159;51.072;13.526;2023-04-03T00:19:54;4.80;81.00
33865;DHT22;20159;51.072;13.526;2023-04-03T00:22:20;4.80;80.90
33865;DHT22;20159;51.072;13.526;2023-04-03T00:24:45;4.80;81.10
33865;DHT22;20159;51.072;13.526;2023-04-03T00:27:11;4.80;80.90
33865;DHT22;20159;51.072;13.526;2023-04-03T00:29:36;4.70;81.10
33865;DHT22;20159;51.072;13.526;2023-04-03T00:32:02;4.70;80.90
33865;DHT22;20159;51.072;13.526;2023-04-03T00:34:27;4.70;80.80
33865;DHT22;20159;51.072;13.526;2023-04-03T00:36:53;4.70;80.60
33865;DHT22;20159;51.072;13.526;2023-04-03T00:39:18;4.60;80.80
33865;DHT22;20159;51.072;13.526;2023-04-03T00:41:44;4.60;81.00
33865;DHT22;20159;51.072;13.526;2023-04-03T00:45:24;4.60;80.60
33865;DHT22;20159;51.072;13.526;2023-04-03T00:47:11;4.50;80.00
33865;DHT22;20159;51.072;13.526;2023-04-03T00:49:38;4.50;80.40
33865;DHT22;20159;51.072;13.526;2023-04-03T00:52:06;4.50;80.50
33865;DHT22;20159;51.072;13.526;2023-04-03T00:54:36;4.40;80.40
33865;DHT22;20159;51.072;13.526;2023-04-03T00:57:03;4.40;80.50
33865;DHT22;20159;51.072;13.526;2023-04-03T00:59:34;4.40;80.50
33865;DHT22;20159;51.072;13.526;2023-04-03T01:02:01;4.40;80.50
33865;DHT22;20159;51.072;13.526;2023-04-03T01:04:31;4.30;80.30
33865;DHT22;20159;51.072;13.526;2023-04-03T01:07:02;4.30;80.20
33865;DHT22;20159;51.072;13.526;2023-04-03T01:09:29;4.30;80.30
33865;DHT22;20159;51.072;13.526;2023-04-03T01:12:16;4.20;80.40
33865;DHT22;20159;51.072;13.526;2023-04-03T01:14:43;4.20;80.20
33865;DHT22;20159;51.072;13.526;2023-04-03T01:25:34;4.10;80.70
33865;DHT22;20159;51.072;13.526;2023-04-03T01:28:02;4.10;80.90
33865;DHT22;20159;51.072;13.526;2023-04-03T01:30:33;4.00;80.60
33865;DHT22;20159;51.072;13.526;2023-04-03T01:32:59;4.00;80.70
33865;DHT22;20159;51.072;13.526;2023-04-03T01:35:25;4.00;80.60
33865;DHT22;20159;51.072;13.526;2023-04-03T01:37:50;3.90;80.60
33865;DHT22;20159;51.072;13.526;2023-04-03T01:40:16;3.90;80.50
33865;DHT22;20159;51.072;13.526;2023-04-03T01:42:42;3.80;80.50
33865;DHT22;20159;51.072;13.526;2023-04-03T01:45:08;3.80;80.50
33865;DHT22;20159;51.072;13.526;2023-04-03T01:47:33;5.80;81.70
33865;DHT22;20159;51.072;13.526;2023-04-03T01:49:59;3.80;80.70
33865;DHT22;20159;51.072;13.526;2023-04-03T01:52:24;3.70;80.70
33865;DHT22;20159;51.072;13.526;2023-04-03T01:54:50;3.70;80.90
33865;DHT22;20159;51.072;13.526;2023-04-03T01:57:16;3.70;81.00
33865;DHT22;20159;51.072;13.526;2023-04-03T01:59:41;3.60;80.80
33865;DHT22;20159;51.072;13.526;2023-04-03T02:02:07;3.60;81.10
33865;DHT22;20159;51.072;13.526;2023-04-03T02:04:33;3.60;80.80
33865;DHT22;20159;51.072;13.526;2023-04-03T02:06:58;3.50;80.80
33865;DHT22;20159;51.072;13.526;2023-04-03T02:09:24;3.60;80.80
33865;DHT22;20159;51.072;13.526;2023-04-03T02:11:49;3.50;80.90
33865;DHT22;20159;51.072;13.526;2023-04-03T02:14:15;3.40;80.80
33865;DHT22;20159;51.072;13.526;2023-04-03T02:16:40;3.40;80.90
33865;DHT22;20159;51.072;13.526;2023-04-03T02:19:06;3.40;81.00
33865;DHT22;20159;51.072;13.526;2023-04-03T02:21:32;3.40;81.20
33865;DHT22;20159;51.072;13.526;2023-04-03T02:23:57;3.20;81.10
33865;DHT22;20159;51.072;13.526;2023-04-03T02:26:23;3.30;81.00
33865;DHT22;20159;51.072;13.526;2023-04-03T02:28:48;3.20;81.00
33865;DHT22;20159;51.072;13.526;2023-04-03T02:31:14;3.20;81.20
33865;DHT22;20159;51.072;13.526;2023-04-03T02:33:39;3.20;81.20
33865;DHT22;20159;51.072;13.526;2023-04-03T02:36:06;3.10;81.20
33865;DHT22;20159;51.072;13.526;2023-04-03T02:38:32;3.10;81.60
33865;DHT22;20159;51.072;13.526;2023-04-03T02:41:02;3.20;81.60
33865;DHT22;20159;51.072;13.526;2023-04-03T02:43:28;3.00;81.70
33865;DHT22;20159;51.072;13.526;2023-04-03T02:45:53;3.00;81.80
33865;DHT22;20159;51.072;13.526;2023-04-03T02:48:19;2.90;81.90
33865;DHT22;20159;51.072;13.526;2023-04-03T02:50:44;2.90;82.00
33865;DHT22;20159;51.072;13.526;2023-04-03T02:53:10;2.90;82.10
33865;DHT22;20159;51.072;13.526;2023-04-03T02:55:35;2.80;82.20
33865;DHT22;20159;51.072;13.526;2023-04-03T02:58:01;2.80;82.40
33865;DHT22;20159;51.072;13.526;2023-04-03T03:00:26;2.70;82.60
33865;DHT22;20159;51.072;13.526;2023-04-03T03:02:52;2.60;82.80
33865;DHT22;20159;51.072;13.526;2023-04-03T03:05:17;5.20;84.40
33865;DHT22;20159;51.072;13.526;2023-04-03T03:07:43;2.50;83.20
33865;DHT22;20159;51.072;13.526;2023-04-03T03:10:09;2.40;83.30
33865;DHT22;20159;51.072;13.526;2023-04-03T03:12:34;2.40;83.30
33865;DHT22;20159;51.072;13.526;2023-04-03T03:15:00;2.40;83.50
33865;DHT22;20159;51.072;13.526;2023-04-03T03:17:26;2.30;83.70
33865;DHT22;20159;51.072;13.526;2023-04-03T03:19:51;2.30;83.80
33865;DHT22;20159;51.072;13.526;2023-04-03T03:22:17;2.20;83.90
33865;DHT22;20159;51.072;13.526;2023-04-03T03:24:42;2.20;84.10
33865;DHT22;20159;51.072;13.526;2023-04-03T03:27:08;2.10;84.20
33865;DHT22;20159;51.072;13.526;2023-04-03T03:29:33;2.00;84.50
33865;DHT22;20159;51.072;13.526;2023-04-03T03:31:59;2.00;84.70
33865;DHT22;20159;51.072;13.526;2023-04-03T03:34:24;1.90;84.70
33865;DHT22;20159;51.072;13.526;2023-04-03T03:36:50;1.90;84.80
33865;DHT22;20159;51.072;13.526;2023-04-03T03:39:16;1.80;84.80
33865;DHT22;20159;51.072;13.526;2023-04-03T03:41:42;1.80;85.10
33865;DHT22;20159;51.072;13.526;2023-04-03T03:44:07;1.70;85.20
33865;DHT22;20159;51.072;13.526;2023-04-03T03:46:33;1.70;85.50
33865;DHT22;20159;51.072;13.526;2023-04-03T03:48:58;1.60;85.70
33865;DHT22;20159;51.072;13.526;2023-04-03T03:51:24;1.60;86.00
33865;DHT22;20159;51.072;13.526;2023-04-03T03:53:50;1.50;86.30
33865;DHT22;20159;51.072;13.526;2023-04-03T03:56:15;1.50;86.50
33865;DHT22;20159;51.072;13.526;2023-04-03T03:58:41;1.40;86.40
33865;DHT22;20159;51.072;13.526;2023-04-03T04:01:06;1.30;86.60
33865;DHT22;20159;51.072;13.526;2023-04-03T04:03:32;1.30;87.10
33865;DHT22;20159;51.072;13.526;2023-04-03T04:05:58;1.30;87.40
33865;DHT22;20159;51.072;13.526;2023-04-03T04:08:24;1.20;87.30
33865;DHT22;20159;51.072;13.526;2023-04-03T04:10:49;1.20;87.50
33865;DHT22;20159;51.072;13.526;2023-04-03T04:13:15;1.10;87.60
33865;DHT22;20159;51.072;13.526;2023-04-03T04:15:40;1.10;87.70
33865;DHT22;20159;51.072;13.526;2023-04-03T04:18:06;1.10;88.00
33865;DHT22;20159;51.072;13.526;2023-04-03T04:20:32;1.10;87.90
33865;DHT22;20159;51.072;13.526;2023-04-03T04:22:57;1.00;88.00
33865;DHT22;20159;51.072;13.526;2023-04-03T04:25:22;1.10;88.20
33865;DHT22;20159;51.072;13.526;2023-04-03T04:27:48;1.00;88.20
33865;DHT22;20159;51.072;13.526;2023-04-03T04:30:14;1.00;88.50
33865;DHT22;20159;51.072;13.526;2023-04-03T04:32:39;1.00;88.50
33865;DHT22;20159;51.072;13.526;2023-04-03T04:35:05;1.00;88.90
33865;DHT22;20159;51.072;13.526;2023-04-03T04:37:31;0.90;88.80
33865;DHT22;20159;51.072;13.526;2023-04-03T04:39:56;0.90;88.90
33865;DHT22;20159;51.072;13.526;2023-04-03T04:42:22;0.90;89.00
33865;DHT22;20159;51.072;13.526;2023-04-03T04:44:47;0.80;89.10
33865;DHT22;20159;51.072;13.526;2023-04-03T04:47:13;0.80;89.40
33865;DHT22;20159;51.072;13.526;2023-04-03T04:49:38;0.80;89.60
33865;DHT22;20159;51.072;13.526;2023-04-03T04:52:04;0.80;89.70
33865;DHT22;20159;51.072;13.526;2023-04-03T04:54:29;0.70;90.00
33865;DHT22;20159;51.072;13.526;2023-04-03T04:56:55;0.70;90.00
33865;DHT22;20159;51.072;13.526;2023-04-03T04:59:20;0.70;90.00
33865;DHT22;20159;51.072;13.526;2023-04-03T05:01:46;0.70;90.00
33865;DHT22;20159;51.072;13.526;2023-04-03T05:04:11;0.70;90.10
33865;DHT22;20159;51.072;13.526;2023-04-03T05:06:38;0.70;90.30
33865;DHT22;20159;51.072;13.526;2023-04-03T05:09:03;0.70;90.30
33865;DHT22;20159;51.072;13.526;2023-04-03T05:11:29;0.70;90.50
33865;DHT22;20159;51.072;13.526;2023-04-03T05:13:54;0.80;90.50
33865;DHT22;20159;51.072;13.526;2023-04-03T05:16:20;0.80;90.50
33865;DHT22;20159;51.072;13.526;2023-04-03T05:18:45;0.80;90.50
33865;DHT22;20159;51.072;13.526;2023-04-03T05:21:11;0.90;90.50
33865;DHT22;20159;51.072;13.526;2023-04-03T05:23:37;0.90;90.60
33865;DHT22;20159;51.072;13.526;2023-04-03T05:26:02;1.00;90.60
33865;DHT22;20159;51.072;13.526;2023-04-03T05:28:28;1.00;90.50
33865;DHT22;20159;51.072;13.526;2023-04-03T05:30:58;1.10;90.50
33865;DHT22;20159;51.072;13.526;2023-04-03T05:33:24;1.20;90.50
33865;DHT22;20159;51.072;13.526;2023-04-03T05:35:52;1.30;90.50
33865;DHT22;20159;51.072;13.526;2023-04-03T05:38:17;1.40;90.40
33865;DHT22;20159;51.072;13.526;2023-04-03T05:40:43;1.40;90.30
33865;DHT22;20159;51.072;13.526;2023-04-03T05:43:08;1.50;90.30
33865;DHT22;20159;51.072;13.526;2023-04-03T05:45:34;1.60;90.30
33865;DHT22;20159;51.072;13.526;2023-04-03T05:48:00;1.70;90.20
33865;DHT22;20159;51.072;13.526;2023-04-03T05:50:25;1.80;90.00
33865;DHT22;20159;51.072;13.526;2023-04-03T05:52:52;1.90;89.90
33865;DHT22;20159;51.072;13.526;2023-04-03T05:55:20;2.00;89.60
33865;DHT22;20159;51.072;13.526;2023-04-03T05:57:45;2.10;89.30
33865;DHT22;20159;51.072;13.526;2023-04-03T06:00:13;2.20;89.30
33865;DHT22;20159;51.072;13.526;2023-04-03T06:02:41;2.30;89.20
33865;DHT22;20159;51.072;13.526;2023-04-03T06:05:08;2.40;88.90
33865;DHT22;20159;51.072;13.526;2023-04-03T06:07:35;2.50;88.70
33865;DHT22;20159;51.072;13.526;2023-04-03T06:10:00;2.60;88.20
33865;DHT22;20159;51.072;13.526;2023-04-03T06:12:27;2.60;88.00
33865;DHT22;20159;51.072;13.526;2023-04-03T06:14:54;2.70;87.90
33865;DHT22;20159;51.072;13.526;2023-04-03T06:17:20;2.70;87.70
33865;DHT22;20159;51.072;13.526;2023-04-03T06:19:45;2.80;88.00
33865;DHT22;20159;51.072;13.526;2023-04-03T06:22:11;2.90;87.80
33865;DHT22;20159;51.072;13.526;2023-04-03T06:24:37;2.90;87.40
33865;DHT22;20159;51.072;13.526;2023-04-03T06:27:03;3.00;87.70
33865;DHT22;20159;51.072;13.526;2023-04-03T06:29:29;3.00;87.00
33865;DHT22;20159;51.072;13.526;2023-04-03T06:31:54;3.10;86.90
33865;DHT22;20159;51.072;13.526;2023-04-03T06:34:20;3.10;86.50
33865;DHT22;20159;51.072;13.526;2023-04-03T06:36:46;3.20;86.40
33865;DHT22;20159;51.072;13.526;2023-04-03T06:39:15;3.30;86.20
33865;DHT22;20159;51.072;13.526;2023-04-03T06:41:42;3.30;86.00
33865;DHT22;20159;51.072;13.526;2023-04-03T06:44:07;3.30;85.90
33865;DHT22;20159;51.072;13.526;2023-04-03T06:46:37;3.40;86.00
33865;DHT22;20159;51.072;13.526;2023-04-03T06:49:03;3.50;85.80
33865;DHT22;20159;51.072;13.526;2023-04-03T06:51:30;3.40;85.50
33865;DHT22;20159;51.072;13.526;2023-04-03T06:53:59;3.20;85.00
33865;DHT22;20159;51.072;13.526;2023-04-03T06:56:25;3.50;84.70
33865;DHT22;20159;51.072;13.526;2023-04-03T06:58:52;3.50;84.70
33865;DHT22;20159;51.072;13.526;2023-04-03T07:01:19;3.50;84.60
33865;DHT22;20159;51.072;13.526;2023-04-03T07:03:46;3.60;84.60
33865;DHT22;20159;51.072;13.526;2023-04-03T07:06:14;3.60;84.30
33865;DHT22;20159;51.072;13.526;2023-04-03T07:08:40;3.60;84.20
33865;DHT22;20159;51.072;13.526;2023-04-03T07:11:07;3.70;84.10
33865;DHT22;20159;51.072;13.526;2023-04-03T07:13:33;3.70;83.90
33865;DHT22;20159;51.072;13.526;2023-04-03T07:15:58;3.70;83.80
33865;DHT22;20159;51.072;13.526;2023-04-03T07:18:24;3.80;83.90
33865;DHT22;20159;51.072;13.526;2023-04-03T07:20:50;6.60;85.30
33865;DHT22;20159;51.072;13.526;2023-04-03T07:23:17;3.80;83.70
33865;DHT22;20159;51.072;13.526;2023-04-03T07:25:44;3.90;83.90
33865;DHT22;20159;51.072;13.526;2023-04-03T07:28:10;3.90;83.60
33865;DHT22;20159;51.072;13.526;2023-04-03T07:30:43;3.90;83.40
33865;DHT22;20159;51.072;13.526;2023-04-03T07:33:08;4.00;82.80
33865;DHT22;20159;51.072;13.526;2023-04-03T07:35:34;4.00;82.90
33865;DHT22;20159;51.072;13.526;2023-04-03T07:37:59;4.00;82.90
33865;DHT22;20159;51.072;13.526;2023-04-03T07:40:25;4.10;82.60
33865;DHT22;20159;51.072;13.526;2023-04-03T07:42:50;4.10;82.40
33865;DHT22;20159;51.072;13.526;2023-04-03T07:45:16;4.10;82.30
33865;DHT22;20159;51.072;13.526;2023-04-03T07:47:42;4.20;82.20
33865;DHT22;20159;51.072;13.526;2023-04-03T07:50:08;4.20;82.40
33865;DHT22;20159;51.072;13.526;2023-04-03T07:52:33;4.20;82.20
33865;DHT22;20159;51.072;13.526;2023-04-03T07:54:59;4.30;82.30
33865;DHT22;20159;51.072;13.526;2023-04-03T07:57:24;4.30;81.80
33865;DHT22;20159;51.072;13.526;2023-04-03T07:59:50;4.30;81.50
33865;DHT22;20159;51.072;13.526;2023-04-03T08:02:15;4.30;81.20
33865;DHT22;20159;51.072;13.526;2023-04-03T08:04:41;4.50;81.40
33865;DHT22;20159;51.072;13.526;2023-04-03T08:07:06;4.40;81.30
33865;DHT22;20159;51.072;13.526;2023-04-03T08:09:32;4.50;81.40
33865;DHT22;20159;51.072;13.526;2023-04-03T08:11:58;4.50;81.10
33865;DHT22;20159;51.072;13.526;2023-04-03T08:14:24;4.50;81.30
33865;DHT22;20159;51.072;13.526;2023-04-03T08:16:49;4.60;81.60
33865;DHT22;20159;51.072;13.526;2023-04-03T08:19:16;4.70;81.50
33865;DHT22;20159;51.072;13.526;2023-04-03T08:21:43;4.70;81.40
33865;DHT22;20159;51.072;13.526;2023-04-03T08:24:09;4.90;81.10
33865;DHT22;20159;51.072;13.526;2023-04-03T08:26:35;4.90;81.20
33865;DHT22;20159;51.072;13.526;2023-04-03T08:29:01;5.00;80.70
33865;DHT22;20159;51.072;13.526;2023-04-03T08:31:27;5.10;80.60
33865;DHT22;20159;51.072;13.526;2023-04-03T08:33:53;5.20;81.00
33865;DHT22;20159;51.072;13.526;2023-04-03T08:36:24;5.20;80.90
33865;DHT22;20159;51.072;13.526;2023-04-03T08:38:52;5.30;79.80
33865;DHT22;20159;51.072;13.526;2023-04-03T08:41:37;5.50;79.60
33865;DHT22;20159;51.072;13.526;2023-04-03T08:47:25;5.70;79.10
33865;DHT22;20159;51.072;13.526;2023-04-03T08:52:39;5.80;79.30
33865;DHT22;20159;51.072;13.526;2023-04-03T08:57:51;6.00;78.80
33865;DHT22;20159;51.072;13.526;2023-04-03T09:00:23;6.20;78.90
33865;DHT22;20159;51.072;13.526;2023-04-03T09:02:55;6.30;77.90
33865;DHT22;20159;51.072;13.526;2023-04-03T09:05:35;6.40;77.40
33865;DHT22;20159;51.072;13.526;2023-04-03T09:08:16;6.50;77.30
33865;DHT22;20159;51.072;13.526;2023-04-03T09:10:44;6.70;77.10
33865;DHT22;20159;51.072;13.526;2023-04-03T09:15:37;6.90;76.40
33865;DHT22;20159;51.072;13.526;2023-04-03T09:23:43;7.60;78.50
33865;DHT22;20159;51.072;13.526;2023-04-03T09:26:33;7.90;76.50
33865;DHT22;20159;51.072;13.526;2023-04-03T09:29:05;8.10;74.70
33865;DHT22;20159;51.072;13.526;2023-04-03T09:31:40;8.30;75.40
33865;DHT22;20159;51.072;13.526;2023-04-03T09:34:14;8.30;74.10
33865;DHT22;20159;51.072;13.526;2023-04-03T09:36:47;8.40;73.90
33865;DHT22;20159;51.072;13.526;2023-04-03T09:39:24;8.50;74.60
33865;DHT22;20159;51.072;13.526;2023-04-03T09:44:35;8.80;72.60
33865;DHT22;20159;51.072;13.526;2023-04-03T09:47:23;8.90;71.20
33865;DHT22;20159;51.072;13.526;2023-04-03T09:49:49;8.90;70.50
33865;DHT22;20159;51.072;13.526;2023-04-03T09:52:20;9.00;71.00
33865;DHT22;20159;51.072;13.526;2023-04-03T09:54:45;9.00;68.80
33865;DHT22;20159;51.072;13.526;2023-04-03T09:57:13;9.00;69.30
33865;DHT22;20159;51.072;13.526;2023-04-03T09:59:57;9.00;68.80
33865;DHT22;20159;51.072;13.526;2023-04-03T10:02:35;9.00;68.00
33865;DHT22;20159;51.072;13.526;2023-04-03T10:05:02;8.90;67.50
33865;DHT22;20159;51.072;13.526;2023-04-03T10:07:33;8.90;69.10
33865;DHT22;20159;51.072;13.526;2023-04-03T10:12:39;9.00;70.30
33865;DHT22;20159;51.072;13.526;2023-04-03T10:15:15;9.00;69.10
33865;DHT22;20159;51.072;13.526;2023-04-03T10:17:58;9.10;68.60
33865;DHT22;20159;51.072;13.526;2023-04-03T10:20:52;9.10;67.40
33865;DHT22;20159;51.072;13.526;2023-04-03T10:23:28;9.20;66.90
33865;DHT22;20159;51.072;13.526;2023-04-03T10:26:04;9.30;67.80
33865;DHT22;20159;51.072;13.526;2023-04-03T10:31:42;9.80;68.30
33865;DHT22;20159;51.072;13.526;2023-04-03T10:34:30;10.20;67.20
33865;DHT22;20159;51.072;13.526;2023-04-03T10:37:13;10.70;66.20
33865;DHT22;20159;51.072;13.526;2023-04-03T10:39:51;11.00;65.00
33865;DHT22;20159;51.072;13.526;2023-04-03T10:45:13;11.40;62.00
33865;DHT22;20159;51.072;13.526;2023-04-03T10:47:46;11.50;64.90
33865;DHT22;20159;51.072;13.526;2023-04-03T10:53:52;11.60;61.40
33865;DHT22;20159;51.072;13.526;2023-04-03T10:56:41;11.70;60.20
33865;DHT22;20159;51.072;13.526;2023-04-03T10:59:36;11.70;59.50
33865;DHT22;20159;51.072;13.526;2023-04-03T11:02:06;11.70;58.00
33865;DHT22;20159;51.072;13.526;2023-04-03T11:04:36;11.60;58.40
33865;DHT22;20159;51.072;13.526;2023-04-03T11:07:15;11.50;58.00
33865;DHT22;20159;51.072;13.526;2023-04-03T11:09:43;11.40;58.30
33865;DHT22;20159;51.072;13.526;2023-04-03T11:12:36;11.30;58.40
33865;DHT22;20159;51.072;13.526;2023-04-03T11:15:04;11.30;59.00
33865;DHT22;20159;51.072;13.526;2023-04-03T11:17:41;11.30;60.10
33865;DHT22;20159;51.072;13.526;2023-04-03T11:22:50;11.50;59.10
33865;DHT22;20159;51.072;13.526;2023-04-03T11:25:21;11.60;59.50
33865;DHT22;20159;51.072;13.526;2023-04-03T11:27:57;11.70;58.10
33865;DHT22;20159;51.072;13.526;2023-04-03T11:35:45;11.70;55.80
33865;DHT22;20159;51.072;13.526;2023-04-03T11:38:30;11.60;55.40
33865;DHT22;20159;51.072;13.526;2023-04-03T11:41:00;11.50;54.10
33865;DHT22;20159;51.072;13.526;2023-04-03T11:43:31;11.40;56.10
33865;DHT22;20159;51.072;13.526;2023-04-03T11:46:02;11.30;55.70
33865;DHT22;20159;51.072;13.526;2023-04-03T11:50:55;11.20;57.00
33865;DHT22;20159;51.072;13.526;2023-04-03T11:53:36;11.20;56.50
33865;DHT22;20159;51.072;13.526;2023-04-03T12:01:56;11.00;54.50
33865;DHT22;20159;51.072;13.526;2023-04-03T12:04:25;10.90;54.80
33865;DHT22;20159;51.072;13.526;2023-04-03T12:07:08;10.80;55.60
33865;DHT22;20159;51.072;13.526;2023-04-03T12:12:35;10.70;54.90
33865;DHT22;20159;51.072;13.526;2023-04-03T12:15:19;10.70;55.10
33865;DHT22;20159;51.072;13.526;2023-04-03T12:17:46;10.00;53.80
33865;DHT22;20159;51.072;13.526;2023-04-03T12:29:25;10.60;54.50
33865;DHT22;20159;51.072;13.526;2023-04-03T12:43:30;10.30;54.90
33865;DHT22;20159;51.072;13.526;2023-04-03T12:46:04;10.30;54.70
33865;DHT22;20159;51.072;13.526;2023-04-03T12:48:46;10.30;55.30
33865;DHT22;20159;51.072;13.526;2023-04-03T12:51:37;10.40;55.50
33865;DHT22;20159;51.072;13.526;2023-04-03T12:54:31;10.30;54.30
33865;DHT22;20159;51.072;13.526;2023-04-03T12:57:17;10.30;54.40
33865;DHT22;20159;51.072;13.526;2023-04-03T12:59:44;10.30;54.40
33865;DHT22;20159;51.072;13.526;2023-04-03T13:02:30;10.30;55.00
33865;DHT22;20159;51.072;13.526;2023-04-03T13:04:58;10.20;53.60
33865;DHT22;20159;51.072;13.526;2023-04-03T13:07:32;10.20;54.40
33865;DHT22;20159;51.072;13.526;2023-04-03T13:10:18;10.10;54.80
33865;DHT22;20159;51.072;13.526;2023-04-03T13:12:46;10.10;54.00
33865;DHT22;20159;51.072;13.526;2023-04-03T13:15:22;10.00;55.00
33865;DHT22;20159;51.072;13.526;2023-04-03T13:17:48;10.00;53.80
33865;DHT22;20159;51.072;13.526;2023-04-03T13:20:25;10.00;54.70
33865;DHT22;20159;51.072;13.526;2023-04-03T13:25:24;10.10;54.90
33865;DHT22;20159;51.072;13.526;2023-04-03T13:27:51;10.10;54.90
33865;DHT22;20159;51.072;13.526;2023-04-03T13:32:51;10.00;53.50
33865;DHT22;20159;51.072;13.526;2023-04-03T13:35:38;9.90;54.60
33865;DHT22;20159;51.072;13.526;2023-04-03T13:40:53;9.70;54.10
33865;DHT22;20159;51.072;13.526;2023-04-03T13:43:24;9.50;54.10
33865;DHT22;20159;51.072;13.526;2023-04-03T13:46:05;9.40;54.30
33865;DHT22;20159;51.072;13.526;2023-04-03T13:48:48;9.20;54.30
33865;DHT22;20159;51.072;13.526;2023-04-03T13:53:56;8.90;55.50
33865;DHT22;20159;51.072;13.526;2023-04-03T13:56:24;8.90;55.10
33865;DHT22;20159;51.072;13.526;2023-04-03T13:59:02;8.70;55.10
33865;DHT22;20159;51.072;13.526;2023-04-03T14:04:20;8.70;54.60
33865;DHT22;20159;51.072;13.526;2023-04-03T14:06:48;8.70;55.70
33865;DHT22;20159;51.072;13.526;2023-04-03T14:09:15;8.80;56.10
33865;DHT22;20159;51.072;13.526;2023-04-03T14:11:41;8.90;56.10
33865;DHT22;20159;51.072;13.526;2023-04-03T14:14:14;9.00;56.30
33865;DHT22;20159;51.072;13.526;2023-04-03T14:16:43;9.20;56.70
33865;DHT22;20159;51.072;13.526;2023-04-03T14:19:28;9.30;56.00
33865;DHT22;20159;51.072;13.526;2023-04-03T14:21:55;9.30;55.20
33865;DHT22;20159;51.072;13.526;2023-04-03T14:24:22;9.50;55.50
33865;DHT22;20159;51.072;13.526;2023-04-03T14:26:49;9.60;56.40
33865;DHT22;20159;51.072;13.526;2023-04-03T14:29:16;9.70;55.30
33865;DHT22;20159;51.072;13.526;2023-04-03T14:31:43;9.80;55.50
33865;DHT22;20159;51.072;13.526;2023-04-03T14:34:11;9.80;54.90
33865;DHT22;20159;51.072;13.526;2023-04-03T14:36:38;9.80;54.50
33865;DHT22;20159;51.072;13.526;2023-04-03T14:39:07;9.80;54.30
33865;DHT22;20159;51.072;13.526;2023-04-03T14:41:34;9.80;53.60
33865;DHT22;20159;51.072;13.526;2023-04-03T14:44:00;9.80;53.90
33865;DHT22;20159;51.072;13.526;2023-04-03T14:46:31;9.80;53.80
33865;DHT22;20159;51.072;13.526;2023-04-03T14:48:57;9.80;53.00
33865;DHT22;20159;51.072;13.526;2023-04-03T14:51:23;9.80;53.50
33865;DHT22;20159;51.072;13.526;2023-04-03T14:53:49;9.70;53.10
33865;DHT22;20159;51.072;13.526;2023-04-03T14:56:25;9.70;53.10
33865;DHT22;20159;51.072;13.526;2023-04-03T14:58:56;9.70;52.20
33865;DHT22;20159;51.072;13.526;2023-04-03T15:01:22;9.70;52.80
33865;DHT22;20159;51.072;13.526;2023-04-03T15:03:48;9.70;53.40
33865;DHT22;20159;51.072;13.526;2023-04-03T15:06:14;9.70;53.20
33865;DHT22;20159;51.072;13.526;2023-04-03T15:08:41;9.70;53.10
33865;DHT22;20159;51.072;13.526;2023-04-03T15:11:08;9.70;53.00
33865;DHT22;20159;51.072;13.526;2023-04-03T15:13:34;9.60;52.30
33865;DHT22;20159;51.072;13.526;2023-04-03T15:15:59;9.60;52.30
33865;DHT22;20159;51.072;13.526;2023-04-03T15:18:27;9.50;52.30
33865;DHT22;20159;51.072;13.526;2023-04-03T15:20:53;9.50;52.50
33865;DHT22;20159;51.072;13.526;2023-04-03T15:23:20;9.40;52.50
33865;DHT22;20159;51.072;13.526;2023-04-03T15:25:47;9.40;53.00
33865;DHT22;20159;51.072;13.526;2023-04-03T15:28:28;9.30;52.80
33865;DHT22;20159;51.072;13.526;2023-04-03T15:30:54;9.30;52.80
33865;DHT22;20159;51.072;13.526;2023-04-03T15:33:20;9.20;53.10
33865;DHT22;20159;51.072;13.526;2023-04-03T15:35:46;9.10;52.60
33865;DHT22;20159;51.072;13.526;2023-04-03T15:38:12;9.10;53.00
33865;DHT22;20159;51.072;13.526;2023-04-03T15:40:37;9.00;53.10
33865;DHT22;20159;51.072;13.526;2023-04-03T15:43:04;9.00;53.70
33865;DHT22;20159;51.072;13.526;2023-04-03T15:45:31;8.90;53.20
33865;DHT22;20159;51.072;13.526;2023-04-03T15:47:57;8.80;52.80
33865;DHT22;20159;51.072;13.526;2023-04-03T15:50:23;8.80;53.30
33865;DHT22;20159;51.072;13.526;2023-04-03T15:52:50;8.70;53.30
33865;DHT22;20159;51.072;13.526;2023-04-03T15:55:24;8.60;53.10
33865;DHT22;20159;51.072;13.526;2023-04-03T15:57:50;8.60;53.30
33865;DHT22;20159;51.072;13.526;2023-04-03T16:00:16;8.50;53.50
33865;DHT22;20159;51.072;13.526;2023-04-03T16:02:44;8.40;53.50
33865;DHT22;20159;51.072;13.526;2023-04-03T16:05:10;8.30;53.40
33865;DHT22;20159;51.072;13.526;2023-04-03T16:07:39;8.20;53.70
33865;DHT22;20159;51.072;13.526;2023-04-03T16:10:07;8.20;53.50
33865;DHT22;20159;51.072;13.526;2023-04-03T16:12:33;11.30;55.80
33865;DHT22;20159;51.072;13.526;2023-04-03T16:14:58;8.00;54.00
33865;DHT22;20159;51.072;13.526;2023-04-03T16:17:25;7.90;53.90
33865;DHT22;20159;51.072;13.526;2023-04-03T16:19:51;7.90;54.00
33865;DHT22;20159;51.072;13.526;2023-04-03T16:22:17;7.80;53.60
33865;DHT22;20159;51.072;13.526;2023-04-03T16:24:42;7.70;54.20
33865;DHT22;20159;51.072;13.526;2023-04-03T16:27:08;7.70;54.10
33865;DHT22;20159;51.072;13.526;2023-04-03T16:29:33;7.60;53.80
33865;DHT22;20159;51.072;13.526;2023-04-03T16:31:59;7.50;54.40
33865;DHT22;20159;51.072;13.526;2023-04-03T16:34:25;7.50;54.20
33865;DHT22;20159;51.072;13.526;2023-04-03T16:36:51;7.40;54.30
33865;DHT22;20159;51.072;13.526;2023-04-03T16:39:17;7.30;54.50
33865;DHT22;20159;51.072;13.526;2023-04-03T16:41:43;7.30;54.70
33865;DHT22;20159;51.072;13.526;2023-04-03T16:44:08;7.20;54.80
33865;DHT22;20159;51.072;13.526;2023-04-03T16:46:34;7.20;55.30
33865;DHT22;20159;51.072;13.526;2023-04-03T16:49:00;7.10;54.30
33865;DHT22;20159;51.072;13.526;2023-04-03T16:51:26;7.10;54.40
33865;DHT22;20159;51.072;13.526;2023-04-03T16:53:51;7.00;54.40
33865;DHT22;20159;51.072;13.526;2023-04-03T16:56:17;6.90;54.60
33865;DHT22;20159;51.072;13.526;2023-04-03T16:58:42;6.80;54.40
33865;DHT22;20159;51.072;13.526;2023-04-03T17:01:09;6.80;54.20
33865;DHT22;20159;51.072;13.526;2023-04-03T17:03:35;6.70;54.60
33865;DHT22;20159;51.072;13.526;2023-04-03T17:06:01;6.70;54.60
33865;DHT22;20159;51.072;13.526;2023-04-03T17:08:26;6.60;54.50
33865;DHT22;20159;51.072;13.526;2023-04-03T17:10:52;6.50;55.00